Dysart, Iowa
Current Conditions -  °F | °C
As of 8:35 PM on Sunday 23 Nov 2014 (Local Time) from KVTI Reporting Station
Drizzle Drizzle  
Wind Chill: 36°   Ceiling: 300
Heat Index: 43°   Visibility: 3mi
Dew Point: 42°   Wind: 15mph
Humidity: 96%   Direction: 320°NW
Pressure: 29.27"   Gusts: 25mph
Location:  42.17°N, 92.31°W
Report Text: KVTI 240235Z AUTO 32013G22KT 3SM -DZ OVC003 06/06 A2927 RMK AO2 T00610055
Loading
Personal Weather Stations






























Interactive Weather Map New forecast layout! Learn more

10-Day Weather Forecast

Advertisements
Track Severe Weather on mobile